sensor_id;sensor_type;location;lat;lon;timestamp;temperature;humidity
66102;HTU21D;52883;51.094;5.880;2023-07-29T00:01:40;17.13;118.99
66102;HTU21D;52883;51.094;5.880;2023-07-29T00:04:07;17.10;118.99
66102;HTU21D;52883;51.094;5.880;2023-07-29T00:06:34;17.10;118.99
66102;HTU21D;52883;51.094;5.880;2023-07-29T00:08:59;17.09;118.99
66102;HTU21D;52883;51.094;5.880;2023-07-29T00:11:25;17.06;118.99
66102;HTU21D;52883;51.094;5.880;2023-07-29T00:13:51;17.06;118.99
66102;HTU21D;52883;51.094;5.880;2023-07-29T00:16:18;17.10;118.99
66102;HTU21D;52883;51.094;5.880;2023-07-29T00:18:48;17.15;118.99
66102;HTU21D;52883;51.094;5.880;2023-07-29T00:21:13;17.22;118.99
66102;HTU21D;52883;51.094;5.880;2023-07-29T00:23:39;17.30;118.99
66102;HTU21D;52883;51.094;5.880;2023-07-29T00:26:05;17.36;118.99
66102;HTU21D;52883;51.094;5.880;2023-07-29T00:28:31;17.40;118.99
66102;HTU21D;52883;51.094;5.880;2023-07-29T00:30:58;17.46;118.99
66102;HTU21D;52883;51.094;5.880;2023-07-29T00:33:24;17.49;118.99
66102;HTU21D;52883;51.094;5.880;2023-07-29T00:35:49;17.50;118.99
66102;HTU21D;52883;51.094;5.880;2023-07-29T00:38:15;17.51;118.99
66102;HTU21D;52883;51.094;5.880;2023-07-29T00:40:41;17.51;118.99
66102;HTU21D;52883;51.094;5.880;2023-07-29T00:43:07;17.51;118.99
66102;HTU21D;52883;51.094;5.880;2023-07-29T00:45:35;17.55;118.99
66102;HTU21D;52883;51.094;5.880;2023-07-29T00:48:02;17.59;118.99
66102;HTU21D;52883;51.094;5.880;2023-07-29T00:50:30;17.61;118.99
66102;HTU21D;52883;51.094;5.880;2023-07-29T00:52:59;17.65;118.99
66102;HTU21D;52883;51.094;5.880;2023-07-29T00:55:25;17.69;118.99
66102;HTU21D;52883;51.094;5.880;2023-07-29T00:57:51;17.72;118.99
66102;HTU21D;52883;51.094;5.880;2023-07-29T01:00:20;17.74;118.99
66102;HTU21D;52883;51.094;5.880;2023-07-29T01:02:45;17.78;118.99
66102;HTU21D;52883;51.094;5.880;2023-07-29T01:05:14;17.79;118.99
66102;HTU21D;52883;51.094;5.880;2023-07-29T01:08:02;17.82;118.99
66102;HTU21D;52883;51.094;5.880;2023-07-29T01:10:46;17.83;118.99
66102;HTU21D;52883;51.094;5.880;2023-07-29T01:13:35;17.85;118.99
66102;HTU21D;52883;51.094;5.880;2023-07-29T01:16:13;17.87;118.99
66102;HTU21D;52883;51.094;5.880;2023-07-29T01:18:44;17.89;118.99
66102;HTU21D;52883;51.094;5.880;2023-07-29T01:21:14;17.92;118.99
66102;HTU21D;52883;51.094;5.880;2023-07-29T01:23:41;17.97;118.99
66102;HTU21D;52883;51.094;5.880;2023-07-29T01:26:06;17.99;118.99
66102;HTU21D;52883;51.094;5.880;2023-07-29T01:28:33;18.02;118.99
66102;HTU21D;52883;51.094;5.880;2023-07-29T01:31:10;18.05;118.99
66102;HTU21D;52883;51.094;5.880;2023-07-29T01:33:51;18.07;118.99
66102;HTU21D;52883;51.094;5.880;2023-07-29T01:36:22;18.09;118.99
66102;HTU21D;52883;51.094;5.880;2023-07-29T01:38:51;18.10;118.99
66102;HTU21D;52883;51.094;5.880;2023-07-29T01:41:19;18.10;118.99
66102;HTU21D;52883;51.094;5.880;2023-07-29T01:43:46;18.12;118.99
66102;HTU21D;52883;51.094;5.880;2023-07-29T01:46:13;18.15;118.99
66102;HTU21D;52883;51.094;5.880;2023-07-29T01:48:40;18.18;118.99
66102;HTU21D;52883;51.094;5.880;2023-07-29T01:51:07;18.20;118.99
66102;HTU21D;52883;51.094;5.880;2023-07-29T01:53:33;18.21;118.99
66102;HTU21D;52883;51.094;5.880;2023-07-29T01:55:59;18.24;118.99
66102;HTU21D;52883;51.094;5.880;2023-07-29T01:58:25;18.26;118.99
66102;HTU21D;52883;51.094;5.880;2023-07-29T02:00:51;18.25;118.99
66102;HTU21D;52883;51.094;5.880;2023-07-29T02:03:16;18.26;118.99
66102;HTU21D;52883;51.094;5.880;2023-07-29T02:05:42;18.27;118.99
66102;HTU21D;52883;51.094;5.880;2023-07-29T02:08:10;18.27;118.99
66102;HTU21D;52883;51.094;5.880;2023-07-29T02:10:36;18.28;118.99
66102;HTU21D;52883;51.094;5.880;2023-07-29T02:13:03;18.28;118.99
66102;HTU21D;52883;51.094;5.880;2023-07-29T02:15:29;18.28;118.99
66102;HTU21D;52883;51.094;5.880;2023-07-29T02:17:54;18.26;118.99
66102;HTU21D;52883;51.094;5.880;2023-07-29T02:20:20;18.24;118.99
66102;HTU21D;52883;51.094;5.880;2023-07-29T02:22:46;18.23;118.99
66102;HTU21D;52883;51.094;5.880;2023-07-29T02:25:12;18.20;118.99
66102;HTU21D;52883;51.094;5.880;2023-07-29T02:27:38;18.19;118.99
66102;HTU21D;52883;51.094;5.880;2023-07-29T02:30:04;18.18;118.99
66102;HTU21D;52883;51.094;5.880;2023-07-29T02:32:30;18.13;118.99
66102;HTU21D;52883;51.094;5.880;2023-07-29T02:34:55;18.10;118.99
66102;HTU21D;52883;51.094;5.880;2023-07-29T02:37:21;18.08;118.99
66102;HTU21D;52883;51.094;5.880;2023-07-29T02:39:47;18.03;118.99
66102;HTU21D;52883;51.094;5.880;2023-07-29T02:42:12;17.98;118.99
66102;HTU21D;52883;51.094;5.880;2023-07-29T02:44:39;18.00;118.99
66102;HTU21D;52883;51.094;5.880;2023-07-29T02:47:05;18.03;118.99
66102;HTU21D;52883;51.094;5.880;2023-07-29T02:49:31;18.05;118.99
66102;HTU21D;52883;51.094;5.880;2023-07-29T02:51:56;18.05;118.99
66102;HTU21D;52883;51.094;5.880;2023-07-29T02:54:22;18.05;118.99
66102;HTU21D;52883;51.094;5.880;2023-07-29T02:56:49;18.05;118.99
66102;HTU21D;52883;51.094;5.880;2023-07-29T02:59:15;18.00;118.99
66102;HTU21D;52883;51.094;5.880;2023-07-29T03:01:40;17.97;118.99
66102;HTU21D;52883;51.094;5.880;2023-07-29T03:04:06;17.93;118.99
66102;HTU21D;52883;51.094;5.880;2023-07-29T03:06:32;17.90;118.99
66102;HTU21D;52883;51.094;5.880;2023-07-29T03:08:57;17.85;118.99
66102;HTU21D;52883;51.094;5.880;2023-07-29T03:11:23;17.78;118.99
66102;HTU21D;52883;51.094;5.880;2023-07-29T03:13:48;17.65;118.99
66102;HTU21D;52883;51.094;5.880;2023-07-29T03:16:16;17.51;118.99
66102;HTU21D;52883;51.094;5.880;2023-07-29T03:18:48;17.41;118.99
66102;HTU21D;52883;51.094;5.880;2023-07-29T03:21:14;17.31;118.99
66102;HTU21D;52883;51.094;5.880;2023-07-29T03:23:40;17.22;118.99
66102;HTU21D;52883;51.094;5.880;2023-07-29T03:26:05;17.14;118.99
66102;HTU21D;52883;51.094;5.880;2023-07-29T03:28:40;17.05;118.99
66102;HTU21D;52883;51.094;5.880;2023-07-29T03:31:06;16.96;118.99
66102;HTU21D;52883;51.094;5.880;2023-07-29T03:33:33;16.89;118.99
66102;HTU21D;52883;51.094;5.880;2023-07-29T03:35:58;16.81;118.99
66102;HTU21D;52883;51.094;5.880;2023-07-29T03:38:24;16.76;118.99
66102;HTU21D;52883;51.094;5.880;2023-07-29T03:40:50;16.72;118.99
66102;HTU21D;52883;51.094;5.880;2023-07-29T03:43:16;16.67;118.99
66102;HTU21D;52883;51.094;5.880;2023-07-29T03:45:42;16.63;118.99
66102;HTU21D;52883;51.094;5.880;2023-07-29T03:48:08;16.57;118.99
66102;HTU21D;52883;51.094;5.880;2023-07-29T03:50:36;16.51;118.99
66102;HTU21D;52883;51.094;5.880;2023-07-29T03:53:02;16.47;118.99
66102;HTU21D;52883;51.094;5.880;2023-07-29T03:55:29;16.43;118.99
66102;HTU21D;52883;51.094;5.880;2023-07-29T03:57:58;16.42;118.99
66102;HTU21D;52883;51.094;5.880;2023-07-29T04:00:25;16.42;118.99
66102;HTU21D;52883;51.094;5.880;2023-07-29T04:03:01;16.40;118.99
66102;HTU21D;52883;51.094;5.880;2023-07-29T04:05:26;16.40;118.99
66102;HTU21D;52883;51.094;5.880;2023-07-29T04:07:53;16.39;118.99
66102;HTU21D;52883;51.094;5.880;2023-07-29T04:10:19;16.37;118.99
66102;HTU21D;52883;51.094;5.880;2023-07-29T04:12:44;16.34;118.99
66102;HTU21D;52883;51.094;5.880;2023-07-29T04:15:10;16.33;118.99
66102;HTU21D;52883;51.094;5.880;2023-07-29T04:17:36;16.29;118.99
66102;HTU21D;52883;51.094;5.880;2023-07-29T04:20:03;16.29;118.99
66102;HTU21D;52883;51.094;5.880;2023-07-29T04:22:33;16.28;118.99
66102;HTU21D;52883;51.094;5.880;2023-07-29T04:24:58;16.27;118.99
66102;HTU21D;52883;51.094;5.880;2023-07-29T04:27:24;16.26;118.99
66102;HTU21D;52883;51.094;5.880;2023-07-29T04:29:50;16.27;118.99
66102;HTU21D;52883;51.094;5.880;2023-07-29T04:32:15;16.25;118.99
66102;HTU21D;52883;51.094;5.880;2023-07-29T04:34:41;16.22;118.99
66102;HTU21D;52883;51.094;5.880;2023-07-29T04:37:07;16.20;118.99
66102;HTU21D;52883;51.094;5.880;2023-07-29T04:39:33;16.17;118.99
66102;HTU21D;52883;51.094;5.880;2023-07-29T04:41:58;16.18;118.99
66102;HTU21D;52883;51.094;5.880;2023-07-29T04:44:24;16.19;118.99
66102;HTU21D;52883;51.094;5.880;2023-07-29T04:46:50;16.22;118.99
66102;HTU21D;52883;51.094;5.880;2023-07-29T04:49:15;16.28;118.99
66102;HTU21D;52883;51.094;5.880;2023-07-29T04:51:41;16.31;118.99
66102;HTU21D;52883;51.094;5.880;2023-07-29T04:54:06;16.34;118.99
66102;HTU21D;52883;51.094;5.880;2023-07-29T04:56:32;16.39;118.99
66102;HTU21D;52883;51.094;5.880;2023-07-29T04:58:58;16.39;118.99
66102;HTU21D;52883;51.094;5.880;2023-07-29T05:01:23;16.40;118.99
66102;HTU21D;52883;51.094;5.880;2023-07-29T05:03:49;16.41;118.99
66102;HTU21D;52883;51.094;5.880;2023-07-29T05:06:14;16.44;118.99
66102;HTU21D;52883;51.094;5.880;2023-07-29T05:08:40;16.48;118.99
66102;HTU21D;52883;51.094;5.880;2023-07-29T05:11:06;16.50;118.99
66102;HTU21D;52883;51.094;5.880;2023-07-29T05:13:31;16.52;118.99
66102;HTU21D;52883;51.094;5.880;2023-07-29T05:15:57;16.56;118.99
66102;HTU21D;52883;51.094;5.880;2023-07-29T05:18:22;16.59;118.99
66102;HTU21D;52883;51.094;5.880;2023-07-29T05:20:49;16.63;118.99
66102;HTU21D;52883;51.094;5.880;2023-07-29T05:23:14;16.69;118.99
66102;HTU21D;52883;51.094;5.880;2023-07-29T05:25:41;16.73;118.99
66102;HTU21D;52883;51.094;5.880;2023-07-29T05:28:06;16.77;118.99
66102;HTU21D;52883;51.094;5.880;2023-07-29T05:30:33;16.85;118.99
66102;HTU21D;52883;51.094;5.880;2023-07-29T05:33:03;16.90;118.99
66102;HTU21D;52883;51.094;5.880;2023-07-29T05:35:30;16.90;118.99
66102;HTU21D;52883;51.094;5.880;2023-07-29T05:37:56;16.89;118.99
66102;HTU21D;52883;51.094;5.880;2023-07-29T05:40:21;16.89;118.99
66102;HTU21D;52883;51.094;5.880;2023-07-29T05:42:47;16.90;118.99
66102;HTU21D;52883;51.094;5.880;2023-07-29T05:45:13;16.95;118.99
66102;HTU21D;52883;51.094;5.880;2023-07-29T05:47:39;17.00;118.99
66102;HTU21D;52883;51.094;5.880;2023-07-29T05:50:05;17.03;118.99
66102;HTU21D;52883;51.094;5.880;2023-07-29T05:52:31;17.05;118.99
66102;HTU21D;52883;51.094;5.880;2023-07-29T05:54:57;17.06;118.99
66102;HTU21D;52883;51.094;5.880;2023-07-29T05:57:23;17.20;118.99
66102;HTU21D;52883;51.094;5.880;2023-07-29T05:59:48;17.47;118.99
66102;HTU21D;52883;51.094;5.880;2023-07-29T06:02:14;17.79;118.99
66102;HTU21D;52883;51.094;5.880;2023-07-29T06:04:40;18.05;118.99
66102;HTU21D;52883;51.094;5.880;2023-07-29T06:07:06;18.33;118.99
66102;HTU21D;52883;51.094;5.880;2023-07-29T06:09:32;18.54;118.99
66102;HTU21D;52883;51.094;5.880;2023-07-29T06:11:58;18.55;118.99
66102;HTU21D;52883;51.094;5.880;2023-07-29T06:14:24;18.51;118.99
66102;HTU21D;52883;51.094;5.880;2023-07-29T06:16:49;18.56;118.99
66102;HTU21D;52883;51.094;5.880;2023-07-29T06:19:15;19.05;118.99
66102;HTU21D;52883;51.094;5.880;2023-07-29T06:21:42;19.83;118.99
66102;HTU21D;52883;51.094;5.880;2023-07-29T06:24:07;20.33;118.99
66102;HTU21D;52883;51.094;5.880;2023-07-29T06:26:33;20.56;118.99
66102;HTU21D;52883;51.094;5.880;2023-07-29T06:28:58;21.00;118.99
66102;HTU21D;52883;51.094;5.880;2023-07-29T06:31:24;21.89;118.99
66102;HTU21D;52883;51.094;5.880;2023-07-29T06:33:50;23.41;118.99
66102;HTU21D;52883;51.094;5.880;2023-07-29T06:36:15;23.75;118.99
66102;HTU21D;52883;51.094;5.880;2023-07-29T06:38:41;23.21;118.99
66102;HTU21D;52883;51.094;5.880;2023-07-29T06:41:07;22.18;118.99
66102;HTU21D;52883;51.094;5.880;2023-07-29T06:43:33;21.59;118.99
66102;HTU21D;52883;51.094;5.880;2023-07-29T06:45:58;21.40;118.99
66102;HTU21D;52883;51.094;5.880;2023-07-29T06:48:24;21.00;118.99
66102;HTU21D;52883;51.094;5.880;2023-07-29T06:50:50;20.62;118.99
66102;HTU21D;52883;51.094;5.880;2023-07-29T06:53:20;20.22;118.99
66102;HTU21D;52883;51.094;5.880;2023-07-29T06:55:46;20.16;118.99
66102;HTU21D;52883;51.094;5.880;2023-07-29T06:58:12;20.86;118.99
66102;HTU21D;52883;51.094;5.880;2023-07-29T07:00:37;22.37;118.99
66102;HTU21D;52883;51.094;5.880;2023-07-29T07:03:03;23.83;118.99
66102;HTU21D;52883;51.094;5.880;2023-07-29T07:05:29;25.00;118.99
66102;HTU21D;52883;51.094;5.880;2023-07-29T07:07:54;25.86;118.99
66102;HTU21D;52883;51.094;5.880;2023-07-29T07:10:20;26.70;118.99
66102;HTU21D;52883;51.094;5.880;2023-07-29T07:12:45;27.09;118.99
66102;HTU21D;52883;51.094;5.880;2023-07-29T07:15:11;27.25;118.99
66102;HTU21D;52883;51.094;5.880;2023-07-29T07:17:37;27.46;118.99
66102;HTU21D;52883;51.094;5.880;2023-07-29T07:20:02;27.69;118.99
66102;HTU21D;52883;51.094;5.880;2023-07-29T07:22:28;27.76;118.99
66102;HTU21D;52883;51.094;5.880;2023-07-29T07:24:54;27.65;118.99
66102;HTU21D;52883;51.094;5.880;2023-07-29T07:27:20;26.81;118.99
66102;HTU21D;52883;51.094;5.880;2023-07-29T07:29:46;26.73;118.99
66102;HTU21D;52883;51.094;5.880;2023-07-29T07:32:11;27.01;118.99
66102;HTU21D;52883;51.094;5.880;2023-07-29T07:34:37;26.50;118.99
66102;HTU21D;52883;51.094;5.880;2023-07-29T07:37:02;26.17;118.99
66102;HTU21D;52883;51.094;5.880;2023-07-29T07:39:30;25.91;118.99
66102;HTU21D;52883;51.094;5.880;2023-07-29T07:41:56;25.62;118.99
66102;HTU21D;52883;51.094;5.880;2023-07-29T07:44:22;25.47;118.99
66102;HTU21D;52883;51.094;5.880;2023-07-29T07:46:47;25.81;118.99
66102;HTU21D;52883;51.094;5.880;2023-07-29T07:49:14;26.67;118.99
66102;HTU21D;52883;51.094;5.880;2023-07-29T07:51:39;27.04;118.99
66102;HTU21D;52883;51.094;5.880;2023-07-29T07:54:05;27.05;118.99
66102;HTU21D;52883;51.094;5.880;2023-07-29T07:56:31;26.97;118.99
66102;HTU21D;52883;51.094;5.880;2023-07-29T07:58:56;26.60;118.99
66102;HTU21D;52883;51.094;5.880;2023-07-29T08:01:22;25.84;118.99
66102;HTU21D;52883;51.094;5.880;2023-07-29T08:03:47;25.99;118.99
66102;HTU21D;52883;51.094;5.880;2023-07-29T08:06:13;26.65;118.99
66102;HTU21D;52883;51.094;5.880;2023-07-29T08:08:39;27.68;118.99
66102;HTU21D;52883;51.094;5.880;2023-07-29T08:11:04;28.35;118.99
66102;HTU21D;52883;51.094;5.880;2023-07-29T08:13:30;28.35;118.99
66102;HTU21D;52883;51.094;5.880;2023-07-29T08:15:55;28.17;118.99
66102;HTU21D;52883;51.094;5.880;2023-07-29T08:18:21;28.97;118.99
66102;HTU21D;52883;51.094;5.880;2023-07-29T08:20:58;29.35;118.99
66102;HTU21D;52883;51.094;5.880;2023-07-29T08:23:26;29.77;118.99
66102;HTU21D;52883;51.094;5.880;2023-07-29T08:25:54;30.50;118.99
66102;HTU21D;52883;51.094;5.880;2023-07-29T08:28:22;30.86;118.99
66102;HTU21D;52883;51.094;5.880;2023-07-29T08:30:48;30.83;118.99
66102;HTU21D;52883;51.094;5.880;2023-07-29T08:33:14;30.15;118.99
66102;HTU21D;52883;51.094;5.880;2023-07-29T08:35:39;29.38;118.99
66102;HTU21D;52883;51.094;5.880;2023-07-29T08:38:05;28.65;118.99
66102;HTU21D;52883;51.094;5.880;2023-07-29T08:40:31;27.88;118.99
66102;HTU21D;52883;51.094;5.880;2023-07-29T08:43:04;27.13;118.99
66102;HTU21D;52883;51.094;5.880;2023-07-29T08:45:34;26.45;118.99
66102;HTU21D;52883;51.094;5.880;2023-07-29T08:48:02;26.08;118.99
66102;HTU21D;52883;51.094;5.880;2023-07-29T08:50:33;25.78;118.99
66102;HTU21D;52883;51.094;5.880;2023-07-29T08:53:04;25.77;118.99
66102;HTU21D;52883;51.094;5.880;2023-07-29T08:55:29;25.82;118.99
66102;HTU21D;52883;51.094;5.880;2023-07-29T08:57:57;25.69;118.99
66102;HTU21D;52883;51.094;5.880;2023-07-29T09:00:23;25.74;118.99
66102;HTU21D;52883;51.094;5.880;2023-07-29T09:02:48;25.93;118.99
66102;HTU21D;52883;51.094;5.880;2023-07-29T09:05:14;25.91;118.99
66102;HTU21D;52883;51.094;5.880;2023-07-29T09:07:41;25.59;118.99
66102;HTU21D;52883;51.094;5.880;2023-07-29T09:10:11;25.49;118.99
66102;HTU21D;52883;51.094;5.880;2023-07-29T09:12:39;26.16;118.99
66102;HTU21D;52883;51.094;5.880;2023-07-29T09:15:05;27.53;118.99
66102;HTU21D;52883;51.094;5.880;2023-07-29T09:17:34;28.58;118.99
66102;HTU21D;52883;51.094;5.880;2023-07-29T09:20:00;29.08;118.99
66102;HTU21D;52883;51.094;5.880;2023-07-29T09:22:27;29.37;118.99
66102;HTU21D;52883;51.094;5.880;2023-07-29T09:24:53;29.38;118.99
66102;HTU21D;52883;51.094;5.880;2023-07-29T09:27:29;29.16;118.99
66102;HTU21D;52883;51.094;5.880;2023-07-29T09:29:57;29.24;118.99
66102;HTU21D;52883;51.094;5.880;2023-07-29T09:32:24;29.60;118.99
66102;HTU21D;52883;51.094;5.880;2023-07-29T09:34:51;30.17;118.99
66102;HTU21D;52883;51.094;5.880;2023-07-29T09:37:17;29.95;118.99
66102;HTU21D;52883;51.094;5.880;2023-07-29T09:39:50;29.94;118.99
66102;HTU21D;52883;51.094;5.880;2023-07-29T09:42:22;29.85;118.99
66102;HTU21D;52883;51.094;5.880;2023-07-29T09:44:50;29.64;118.99
66102;HTU21D;52883;51.094;5.880;2023-07-29T09:47:23;29.64;118.99
66102;HTU21D;52883;51.094;5.880;2023-07-29T09:49:50;29.67;118.99
66102;HTU21D;52883;51.094;5.880;2023-07-29T09:52:21;29.91;118.99
66102;HTU21D;52883;51.094;5.880;2023-07-29T09:54:47;29.97;118.99
66102;HTU21D;52883;51.094;5.880;2023-07-29T09:57:14;29.98;110.97
66102;HTU21D;52883;51.094;5.880;2023-07-29T09:59:41;29.72;118.99
66102;HTU21D;52883;51.094;5.880;2023-07-29T10:02:13;29.49;118.99
66102;HTU21D;52883;51.094;5.880;2023-07-29T10:04:45;29.15;118.99
66102;HTU21D;52883;51.094;5.880;2023-07-29T10:07:11;28.72;118.99
66102;HTU21D;52883;51.094;5.880;2023-07-29T10:09:40;28.38;118.99
66102;HTU21D;52883;51.094;5.880;2023-07-29T10:12:07;27.76;118.99
66102;HTU21D;52883;51.094;5.880;2023-07-29T10:14:33;27.49;118.99
66102;HTU21D;52883;51.094;5.880;2023-07-29T10:17:00;27.37;118.99
66102;HTU21D;52883;51.094;5.880;2023-07-29T10:19:26;27.15;118.99
66102;HTU21D;52883;51.094;5.880;2023-07-29T10:21:56;27.08;118.99
66102;HTU21D;52883;51.094;5.880;2023-07-29T10:24:29;27.22;118.99
66102;HTU21D;52883;51.094;5.880;2023-07-29T10:27:01;27.54;118.99
66102;HTU21D;52883;51.094;5.880;2023-07-29T10:29:32;27.99;118.99
66102;HTU21D;52883;51.094;5.880;2023-07-29T10:32:01;28.49;118.99
66102;HTU21D;52883;51.094;5.880;2023-07-29T10:34:30;29.43;118.99
66102;HTU21D;52883;51.094;5.880;2023-07-29T10:36:57;30.07;118.99
66102;HTU21D;52883;51.094;5.880;2023-07-29T10:39:25;30.87;118.99
66102;HTU21D;52883;51.094;5.880;2023-07-29T10:42:02;31.58;114.38
66102;HTU21D;52883;51.094;5.880;2023-07-29T10:47:25;31.36;111.61
66102;HTU21D;52883;51.094;5.880;2023-07-29T10:49:57;31.00;113.43
66102;HTU21D;52883;51.094;5.880;2023-07-29T10:52:40;30.42;75.28
66102;HTU21D;52883;51.094;5.880;2023-07-29T10:55:26;29.87;113.46
66102;HTU21D;52883;51.094;5.880;2023-07-29T10:58:08;29.96;101.40
66102;HTU21D;52883;51.094;5.880;2023-07-29T11:00:36;30.30;117.58
66102;HTU21D;52883;51.094;5.880;2023-07-29T11:03:05;29.97;90.63
66102;HTU21D;52883;51.094;5.880;2023-07-29T11:05:52;29.68;118.53
66102;HTU21D;52883;51.094;5.880;2023-07-29T11:11:08;29.42;118.02
66102;HTU21D;52883;51.094;5.880;2023-07-29T11:13:38;29.77;118.99
66102;HTU21D;52883;51.094;5.880;2023-07-29T11:16:05;30.27;106.59
66102;HTU21D;52883;51.094;5.880;2023-07-29T11:18:32;31.23;118.99
66102;HTU21D;52883;51.094;5.880;2023-07-29T11:21:00;32.28;108.32
66102;HTU21D;52883;51.094;5.880;2023-07-29T11:23:34;32.49;102.85
66102;HTU21D;52883;51.094;5.880;2023-07-29T11:26:01;32.31;98.03
66102;HTU21D;52883;51.094;5.880;2023-07-29T11:28:28;31.88;85.94
66102;HTU21D;52883;51.094;5.880;2023-07-29T11:30:55;30.93;97.16
66102;HTU21D;52883;51.094;5.880;2023-07-29T11:33:24;30.09;110.74
66102;HTU21D;52883;51.094;5.880;2023-07-29T11:35:50;29.45;118.89
66102;HTU21D;52883;51.094;5.880;2023-07-29T11:38:21;29.26;118.99
66102;HTU21D;52883;51.094;5.880;2023-07-29T11:41:00;29.59;118.99
66102;HTU21D;52883;51.094;5.880;2023-07-29T11:43:26;30.01;118.99
66102;HTU21D;52883;51.094;5.880;2023-07-29T11:45:52;30.18;105.07
66102;HTU21D;52883;51.094;5.880;2023-07-29T11:48:26;29.74;113.48
66102;HTU21D;52883;51.094;5.880;2023-07-29T11:50:53;29.48;116.34
66102;HTU21D;52883;51.094;5.880;2023-07-29T11:53:19;29.07;118.99
66102;HTU21D;52883;51.094;5.880;2023-07-29T11:55:44;28.80;118.99
66102;HTU21D;52883;51.094;5.880;2023-07-29T11:58:15;28.50;118.99
66102;HTU21D;52883;51.094;5.880;2023-07-29T12:00:41;28.47;118.99
66102;HTU21D;52883;51.094;5.880;2023-07-29T12:03:08;28.09;118.99
66102;HTU21D;52883;51.094;5.880;2023-07-29T12:05:35;27.76;118.99
66102;HTU21D;52883;51.094;5.880;2023-07-29T12:08:01;27.11;118.99
66102;HTU21D;52883;51.094;5.880;2023-07-29T12:10:27;26.64;118.99
66102;HTU21D;52883;51.094;5.880;2023-07-29T12:12:53;26.30;118.99
66102;HTU21D;52883;51.094;5.880;2023-07-29T12:15:24;26.22;118.99
66102;HTU21D;52883;51.094;5.880;2023-07-29T12:17:53;26.60;118.99
66102;HTU21D;52883;51.094;5.880;2023-07-29T12:20:20;26.94;118.99
66102;HTU21D;52883;51.094;5.880;2023-07-29T12:22:54;27.12;118.99
66102;HTU21D;52883;51.094;5.880;2023-07-29T12:25:20;26.93;118.99
66102;HTU21D;52883;51.094;5.880;2023-07-29T12:27:47;26.65;118.99
66102;HTU21D;52883;51.094;5.880;2023-07-29T12:30:13;26.53;118.99
66102;HTU21D;52883;51.094;5.880;2023-07-29T12:32:45;26.62;118.99
66102;HTU21D;52883;51.094;5.880;2023-07-29T12:35:12;26.87;118.99
66102;HTU21D;52883;51.094;5.880;2023-07-29T12:37:38;26.82;118.99
66102;HTU21D;52883;51.094;5.880;2023-07-29T12:40:09;26.57;118.99
66102;HTU21D;52883;51.094;5.880;2023-07-29T12:42:35;26.19;118.99
66102;HTU21D;52883;51.094;5.880;2023-07-29T12:45:00;25.88;118.99
66102;HTU21D;52883;51.094;5.880;2023-07-29T12:47:26;25.59;118.99
66102;HTU21D;52883;51.094;5.880;2023-07-29T12:49:51;25.40;118.99
66102;HTU21D;52883;51.094;5.880;2023-07-29T12:52:17;25.30;118.99
66102;HTU21D;52883;51.094;5.880;2023-07-29T12:54:43;25.24;118.99
66102;HTU21D;52883;51.094;5.880;2023-07-29T12:57:09;25.27;118.99
66102;HTU21D;52883;51.094;5.880;2023-07-29T12:59:35;25.20;118.99
66102;HTU21D;52883;51.094;5.880;2023-07-29T13:02:00;24.90;118.99
66102;HTU21D;52883;51.094;5.880;2023-07-29T13:04:26;24.58;118.99
66102;HTU21D;52883;51.094;5.880;2023-07-29T13:06:52;24.63;118.99
66102;HTU21D;52883;51.094;5.880;2023-07-29T13:09:17;24.95;118.99
66102;HTU21D;52883;51.094;5.880;2023-07-29T13:11:43;25.32;118.99
66102;HTU21D;52883;51.094;5.880;2023-07-29T13:14:08;25.54;118.99
66102;HTU21D;52883;51.094;5.880;2023-07-29T13:16:34;25.34;118.99
66102;HTU21D;52883;51.094;5.880;2023-07-29T13:18:59;24.85;118.99
66102;HTU21D;52883;51.094;5.880;2023-07-29T13:21:25;24.08;118.99
66102;HTU21D;52883;51.094;5.880;2023-07-29T13:23:51;23.02;118.99
66102;HTU21D;52883;51.094;5.880;2023-07-29T13:26:17;22.34;118.99
66102;HTU21D;52883;51.094;5.880;2023-07-29T13:28:42;21.91;118.99
66102;HTU21D;52883;51.094;5.880;2023-07-29T13:31:08;21.89;118.99
66102;HTU21D;52883;51.094;5.880;2023-07-29T13:33:33;22.07;118.99
66102;HTU21D;52883;51.094;5.880;2023-07-29T13:36:02;22.17;118.99
66102;HTU21D;52883;51.094;5.880;2023-07-29T13:38:29;22.27;118.99
66102;HTU21D;52883;51.094;5.880;2023-07-29T13:40:54;22.38;118.99
66102;HTU21D;52883;51.094;5.880;2023-07-29T13:43:20;22.40;118.99
66102;HTU21D;52883;51.094;5.880;2023-07-29T13:45:46;22.55;118.99
66102;HTU21D;52883;51.094;5.880;2023-07-29T13:48:14;22.47;118.99
66102;HTU21D;52883;51.094;5.880;2023-07-29T13:50:39;22.01;118.99
66102;HTU21D;52883;51.094;5.880;2023-07-29T13:53:06;21.80;118.99
66102;HTU21D;52883;51.094;5.880;2023-07-29T13:55:32;21.62;118.99
66102;HTU21D;52883;51.094;5.880;2023-07-29T13:57:58;21.62;118.99
66102;HTU21D;52883;51.094;5.880;2023-07-29T14:00:23;21.70;118.99
66102;HTU21D;52883;51.094;5.880;2023-07-29T14:02:49;21.90;118.99
66102;HTU21D;52883;51.094;5.880;2023-07-29T14:05:15;21.98;118.99
66102;HTU21D;52883;51.094;5.880;2023-07-29T14:07:40;22.07;118.99
66102;HTU21D;52883;51.094;5.880;2023-07-29T14:10:06;22.50;118.99
66102;HTU21D;52883;51.094;5.880;2023-07-29T14:12:32;23.03;118.99
66102;HTU21D;52883;51.094;5.880;2023-07-29T14:14:57;23.28;118.99
66102;HTU21D;52883;51.094;5.880;2023-07-29T14:17:23;23.44;118.99
66102;HTU21D;52883;51.094;5.880;2023-07-29T14:19:48;23.60;118.99
66102;HTU21D;52883;51.094;5.880;2023-07-29T14:22:14;23.79;118.99
66102;HTU21D;52883;51.094;5.880;2023-07-29T14:24:40;23.60;118.99
66102;HTU21D;52883;51.094;5.880;2023-07-29T14:27:05;23.35;118.99
66102;HTU21D;52883;51.094;5.880;2023-07-29T14:29:31;23.14;118.99
66102;HTU21D;52883;51.094;5.880;2023-07-29T14:31:57;23.27;118.99
66102;HTU21D;52883;51.094;5.880;2023-07-29T14:34:22;23.76;118.99
66102;HTU21D;52883;51.094;5.880;2023-07-29T14:36:48;24.18;118.99
66102;HTU21D;52883;51.094;5.880;2023-07-29T14:39:14;24.27;118.99
66102;HTU21D;52883;51.094;5.880;2023-07-29T14:41:39;24.48;118.99
66102;HTU21D;52883;51.094;5.880;2023-07-29T14:44:05;24.78;118.99
66102;HTU21D;52883;51.094;5.880;2023-07-29T14:46:30;25.01;118.99
66102;HTU21D;52883;51.094;5.880;2023-07-29T14:48:56;25.19;118.99
66102;HTU21D;52883;51.094;5.880;2023-07-29T14:51:22;25.10;118.99
66102;HTU21D;52883;51.094;5.880;2023-07-29T14:53:48;25.10;118.99
66102;HTU21D;52883;51.094;5.880;2023-07-29T14:56:14;24.87;118.99
66102;HTU21D;52883;51.094;5.880;2023-07-29T14:58:43;24.58;118.99
66102;HTU21D;52883;51.094;5.880;2023-07-29T15:01:09;24.39;118.99
66102;HTU21D;52883;51.094;5.880;2023-07-29T15:03:34;24.15;118.99
66102;HTU21D;52883;51.094;5.880;2023-07-29T15:06:00;23.95;118.99
66102;HTU21D;52883;51.094;5.880;2023-07-29T15:08:26;23.66;118.99